Time;durP1;ratioP1;P1;durP2;ratioP2;P2;SDS_P1;SDS_P2;PMS_P1;PMS_P2;Temp;Humidity;BMP_temperature;BMP_pressure;BME280_temperature;BME280_humidity;BME280_pressure;Samples;Min_cycle;Max_cycle;Signal;HPM_P1;HPM_P2
2023/10/12 04:01:10;;;;;;;2.13;1.17;;;18.70;42.20;;;;;;5625565;23;20505;-73
2023/10/12 04:03:40;;;;;;;1.20;0.30;;;18.60;43.30;;;;;;4929832;29;20880;-74
2023/10/12 04:06:14;;;;;;;4.77;1.80;;;18.60;43.80;;;;;;4923542;29;20498;-73
2023/10/12 04:08:51;;;;;;;0.80;0.50;;;18.70;43.60;;;;;;4933676;29;20537;-73
2023/10/12 04:14:31;;;;;;;1.77;1.17;;;18.70;44.40;;;;;;4905807;29;20961;-74
2023/10/12 04:17:08;;;;;;;1.37;0.60;;;18.60;44.30;;;;;;4902655;29;20482;-73
2023/10/12 04:19:42;;;;;;;3.23;1.20;;;18.60;45.20;;;;;;4900293;29;20454;-74
2023/10/12 04:22:25;;;;;;;0.77;0.43;;;18.70;44.50;;;;;;4906071;29;20475;-74
2023/10/12 04:24:55;;;;;;;0.60;0.20;;;18.70;44.80;;;;;;4910953;29;20460;-74
2023/10/12 04:27:38;;;;;;;0.60;0.20;;;18.70;45.20;;;;;;4909069;29;20448;-74
2023/10/12 04:30:21;;;;;;;0.60;0.10;;;18.90;46.10;;;;;;4904716;29;20456;-74
2023/10/12 04:32:57;;;;;;;0.60;0.20;;;18.90;45.50;;;;;;4977879;23;20511;-76
2023/10/12 04:35:50;;;;;;;0.60;0.10;;;18.90;55.80;;;;;;4927290;29;21014;-75
2023/10/12 04:38:27;;;;;;;0.80;0.50;;;18.80;54.90;;;;;;4923064;29;20959;-75
2023/10/12 04:41:25;;;;;;;5.03;1.13;;;18.80;54.90;;;;;;4922600;29;20524;-75
2023/10/12 04:43:53;;;;;;;1.30;0.70;;;18.80;46.70;;;;;;4924204;29;20479;-75
2023/10/12 04:46:26;;;;;;;4.60;2.57;;;18.80;56.80;;;;;;4917029;29;20843;-76
2023/10/12 04:49:29;;;;;;;1.67;0.70;;;18.80;45.50;;;;;;4915240;29;20456;-75
2023/10/12 04:51:51;;;;;;;2.10;1.10;;;18.70;45.10;;;;;;4914986;29;20553;-75
2023/10/12 04:54:23;;;;;;;1.47;1.13;;;18.60;45.60;;;;;;4918640;29;20474;-76
2023/10/12 04:56:56;;;;;;;3.63;1.40;;;18.60;57.20;;;;;;4921646;29;20528;-75
2023/10/12 04:59:29;;;;;;;0.60;0.10;;;18.60;57.60;;;;;;4919939;29;20446;-75
2023/10/12 05:02:16;;;;;;;0.60;0.20;;;18.60;48.50;;;;;;4919077;29;20491;-76
2023/10/12 05:05:14;;;;;;;0.60;0.20;;;18.60;48.30;;;;;;4920007;29;21123;-75
2023/10/12 05:07:53;;;;;;;0.60;0.20;;;18.70;59.10;;;;;;4911069;29;20960;-76
2023/10/12 05:10:26;;;;;;;0.80;0.20;;;18.80;58.60;;;;;;4915369;29;20463;-75
2023/10/12 05:13:03;;;;;;;0.60;0.10;;;18.80;47.90;;;;;;4914881;29;20479;-76
2023/10/12 05:15:39;;;;;;;4.17;3.90;;;18.90;58.50;;;;;;4917283;29;20544;-76
2023/10/12 05:18:08;;;;;;;0.60;0.20;;;18.90;48.10;;;;;;4915798;29;21112;-76
2023/10/12 05:20:40;;;;;;;0.60;0.10;;;18.90;57.60;;;;;;4916290;29;20486;-77
2023/10/12 05:23:12;;;;;;;0.60;0.10;;;18.90;47.20;;;;;;4920381;29;20578;-75
2023/10/12 05:25:53;;;;;;;0.60;0.10;;;18.90;47.20;;;;;;4921799;29;20546;-75
2023/10/12 05:28:27;;;;;;;0.60;0.10;;;19.00;58.20;;;;;;4918003;29;20444;-74
2023/10/12 05:30:59;;;;;;;0.60;0.10;;;19.00;57.40;;;;;;4915509;29;20455;-75
2023/10/12 05:36:15;;;;;;;4.83;4.43;;;18.50;59.40;;;;;;4921702;29;20546;-75
2023/10/12 05:38:48;;;;;;;1.30;0.90;;;18.60;61.10;;;;;;4908780;29;21037;-75
2023/10/12 05:41:22;;;;;;;1.53;0.57;;;18.60;62.50;;;;;;4910141;29;20218;-73
2023/10/12 05:43:49;;;;;;;0.60;0.10;;;18.60;51.20;;;;;;4914152;29;20469;-69
2023/10/12 05:46:18;;;;;;;0.60;0.10;;;18.70;77.80;;;;;;4914648;29;20457;-71
2023/10/12 05:48:46;;;;;;;0.60;0.20;;;18.60;58.30;;;;;;4913263;29;20455;-70
2023/10/12 05:51:21;;;;;;;0.60;0.20;;;18.70;70.40;;;;;;4914307;29;20459;-69
2023/10/12 05:53:53;;;;;;;0.60;0.27;;;18.80;75.30;;;;;;4916792;29;20466;-69
2023/10/12 05:56:23;;;;;;;1.63;0.87;;;18.80;85.10;;;;;;4918608;29;20571;-69
2023/10/12 05:58:51;;;;;;;1.77;1.13;;;18.80;74.20;;;;;;4917932;29;20942;-69
2023/10/12 06:01:32;;;;;;;0.60;0.10;;;18.60;73.00;;;;;;4918129;29;20454;-69
2023/10/12 06:04:05;;;;;;;0.60;0.10;;;18.60;65.30;;;;;;4918165;29;20488;-69
2023/10/12 06:06:36;;;;;;;0.70;0.40;;;18.70;77.70;;;;;;4918279;29;20451;-75
2023/10/12 06:09:11;;;;;;;0.60;0.10;;;18.80;79.40;;;;;;4917206;29;20483;-73
2023/10/12 06:11:42;;;;;;;0.60;0.10;;;18.80;77.00;;;;;;4911359;29;20919;-77
2023/10/12 06:14:10;;;;;;;0.60;0.10;;;18.90;62.70;;;;;;4917132;29;20527;-74
2023/10/12 06:16:40;;;;;;;0.60;0.20;;;18.90;73.40;;;;;;4917975;29;20574;-75
2023/10/12 06:19:18;;;;;;;0.60;0.10;;;19.00;73.90;;;;;;4918548;29;20812;-76
2023/10/12 06:21:51;;;;;;;0.60;0.10;;;19.00;73.00;;;;;;4918160;29;20457;-76
2023/10/12 06:24:33;;;;;;;0.60;0.20;;;19.00;61.70;;;;;;4915618;29;20466;-76
2023/10/12 06:27:11;;;;;;;0.60;0.10;;;19.10;73.90;;;;;;4917897;29;20954;-74
2023/10/12 06:29:39;;;;;;;2.53;2.20;;;19.10;73.10;;;;;;4917572;29;20539;-75
2023/10/12 06:32:18;;;;;;;0.60;0.20;;;18.90;61.60;;;;;;4917990;29;20530;-74
2023/10/12 06:35:02;;;;;;;0.60;0.10;;;18.90;62.20;;;;;;4916244;29;20486;-75
2023/10/12 06:37:49;;;;;;;0.70;0.40;;;18.90;75.80;;;;;;4922438;29;20563;-75
2023/10/12 06:40:37;;;;;;;0.60;0.10;;;18.90;77.10;;;;;;4920619;29;20450;-75
2023/10/12 06:45:56;;;;;;;0.83;0.83;;;18.80;76.90;;;;;;4904852;29;21005;-75
2023/10/12 06:51:32;;;;;;;0.80;0.20;;;18.90;65.00;;;;;;5143745;27;20572;-75
2023/10/12 06:54:06;;;;;;;0.60;0.20;;;18.70;64.30;;;;;;5119423;28;20471;-75
2023/10/12 06:56:38;;;;;;;3.77;3.53;;;18.70;77.30;;;;;;5131079;28;20490;-76
2023/10/12 06:59:14;;;;;;;0.60;0.13;;;18.60;78.50;;;;;;5130477;27;21181;-76
2023/10/12 07:01:53;;;;;;;0.60;0.10;;;18.60;67.00;;;;;;5122988;27;20502;-75
2023/10/12 07:04:27;;;;;;;0.60;0.10;;;18.70;66.50;;;;;;5122737;28;20493;-75
2023/10/12 07:06:56;;;;;;;0.60;0.10;;;18.80;76.60;;;;;;5132906;27;20509;-75
2023/10/12 07:09:37;;;;;;;0.60;0.10;;;18.80;77.40;;;;;;5128600;28;20470;-76
2023/10/12 07:12:07;;;;;;;0.60;0.10;;;18.90;67.80;;;;;;5133527;28;20446;-74
2023/10/12 07:14:38;;;;;;;3.73;1.80;;;18.90;80.50;;;;;;5137329;28;20447;-76
2023/10/12 07:17:07;;;;;;;1.00;0.87;;;19.00;78.40;;;;;;5138204;27;20447;-76
2023/10/12 07:19:35;;;;;;;0.60;0.10;;;18.90;63.90;;;;;;5127779;28;20449;-75
2023/10/12 07:22:08;;;;;;;0.60;0.20;;;18.90;63.30;;;;;;5126514;28;20443;-77
2023/10/12 07:24:38;;;;;;;0.60;0.10;;;18.90;62.90;;;;;;5125805;28;20446;-74
2023/10/12 07:27:17;;;;;;;0.60;0.10;;;19.00;74.80;;;;;;5130976;27;20446;-75
2023/10/12 07:29:47;;;;;;;0.60;0.20;;;18.50;75.20;;;;;;5130386;27;20481;-73
2023/10/12 07:32:31;;;;;;;0.87;0.30;;;18.90;62.00;;;;;;5116449;28;20597;-74
2023/10/12 07:35:07;;;;;;;0.60;0.10;;;18.90;73.40;;;;;;5125652;27;20439;-75
2023/10/12 07:37:41;;;;;;;0.70;0.50;;;18.90;74.10;;;;;;5124188;27;20469;-75
2023/10/12 07:40:22;;;;;;;0.60;0.10;;;18.90;74.70;;;;;;5110814;28;20435;-74
2023/10/12 07:42:50;;;;;;;0.60;0.10;;;18.90;65.20;;;;;;5117633;28;20481;-76
2023/10/12 07:45:19;;;;;;;0.60;0.10;;;18.90;77.60;;;;;;5129784;28;20466;-74
2023/10/12 07:47:58;;;;;;;0.60;0.20;;;18.90;77.30;;;;;;5122479;28;20902;-74
2023/10/12 07:50:30;;;;;;;1.23;1.13;;;19.00;79.10;;;;;;5128114;28;20679;-74
2023/10/12 07:53:21;;;;;;;0.60;0.20;;;18.80;67.10;;;;;;5137540;27;20495;-75
2023/10/12 07:55:56;;;;;;;0.60;0.10;;;18.80;77.60;;;;;;5136068;28;20467;-75
2023/10/12 07:58:23;;;;;;;0.60;0.10;;;18.80;80.80;;;;;;5117159;28;20999;-74
2023/10/12 08:01:19;;;;;;;0.60;0.10;;;18.90;73.60;;;;;;5129938;28;20431;-74
2023/10/12 08:03:51;;;;;;;0.70;0.50;;;18.90;75.50;;;;;;5116901;28;20493;-75
2023/10/12 08:06:27;;;;;;;0.60;0.10;;;19.00;87.30;;;;;;5109058;28;20447;-74
2023/10/12 08:09:02;;;;;;;0.60;0.10;;;19.00;85.90;;;;;;5118347;28;20909;-74
2023/10/12 08:11:31;;;;;;;0.97;0.97;;;19.10;85.20;;;;;;5104462;28;20526;-74
2023/10/12 08:14:10;;;;;;;1.10;0.67;;;19.00;72.80;;;;;;5111286;28;20474;-75
2023/10/12 08:16:40;;;;;;;4.67;4.47;;;18.90;83.30;;;;;;5110000;28;20455;-75
2023/10/12 08:19:28;;;;;;;0.70;0.30;;;18.90;85.00;;;;;;5096880;28;20444;-73
2023/10/12 08:22:03;;;;;;;0.83;0.70;;;19.00;84.60;;;;;;5114699;28;20828;-74
2023/10/12 08:24:36;;;;;;;0.60;0.10;;;18.90;74.60;;;;;;5114295;28;20450;-74
2023/10/12 08:27:06;;;;;;;0.60;0.10;;;18.90;86.40;;;;;;5113210;28;20438;-75
2023/10/12 08:32:32;;;;;;;2.20;0.93;;;18.80;79.30;;;;;;5111463;28;20525;-73
2023/10/12 08:35:36;;;;;;;0.60;0.10;;;;;;;;;;5110691;28;20443;-75
2023/10/12 08:38:16;;;;;;;0.60;0.10;;;18.80;81.70;;;;;;5097117;28;20861;-75
2023/10/12 08:41:19;;;;;;;0.60;0.20;;;18.70;83.10;;;;;;5100469;28;20960;-74
2023/10/12 08:43:48;;;;;;;0.60;0.10;;;18.70;83.70;;;;;;5104234;28;20946;-75
2023/10/12 08:46:50;;;;;;;4.00;1.37;;;18.60;93.20;;;;;;5113224;28;20496;-75
2023/10/12 08:52:06;;;;;;;0.70;0.43;;;18.30;92.20;;;;;;5109285;28;20471;-75
2023/10/12 08:54:37;;;;;;;0.60;0.13;;;18.40;92.60;;;;;;5107483;28;20496;-75
2023/10/12 08:57:17;;;;;;;0.60;0.10;;;18.40;98.30;;;;;;5115829;28;20447;-75
2023/10/12 08:59:59;;;;;;;0.60;0.30;;;18.40;99.90;;;;;;5107973;28;20527;-73
2023/10/12 09:02:28;;;;;;;0.60;0.20;;;18.50;96.90;;;;;;5121396;28;20451;-74
2023/10/12 09:04:59;;;;;;;0.60;0.10;;;18.50;98.60;;;;;;5116240;28;20440;-76
2023/10/12 09:07:40;;;;;;;0.60;0.10;;;18.50;99.90;;;;;;5100815;28;20450;-74
2023/10/12 09:10:28;;;;;;;0.60;0.10;;;18.60;99.90;;;;;;5112603;28;20439;-75
2023/10/12 09:12:57;;;;;;;0.60;0.10;;;18.70;99.90;;;;;;5097711;28;20487;-75
2023/10/12 09:15:30;;;;;;;0.60;0.10;;;18.70;99.90;;;;;;5114057;28;20444;-75
2023/10/12 09:17:59;;;;;;;0.60;0.10;;;18.80;99.90;;;;;;5106883;28;20475;-75
2023/10/12 09:20:28;;;;;;;0.60;0.10;;;18.80;99.90;;;;;;5107711;28;20492;-78
2023/10/12 09:23:05;;;;;;;0.60;0.10;;;18.80;99.90;;;;;;5102459;28;20495;-74
2023/10/12 09:28:42;;;;;;;0.60;0.10;;;20.10;99.90;;;;;;5104539;28;20450;-74
2023/10/12 09:31:13;;;;;;;0.60;0.10;;;18.60;99.90;;;;;;5113332;28;20854;-75
2023/10/12 09:33:45;;;;;;;0.60;0.10;;;18.60;99.90;;;;;;5097044;28;20464;-75
2023/10/12 09:36:13;;;;;;;0.60;0.20;;;18.50;99.90;;;;;;5103422;28;20439;-73
2023/10/12 09:38:41;;;;;;;0.60;0.13;;;18.60;99.90;;;;;;5095709;28;20444;-74
2023/10/12 09:41:14;;;;;;;0.60;0.10;;;18.60;99.90;;;;;;5111744;28;20439;-75
2023/10/12 09:43:53;;;;;;;0.60;0.10;;;18.50;99.90;;;;;;5113221;28;20470;-75
2023/10/12 09:46:24;;;;;;;0.60;0.10;;;18.60;99.90;;;;;;5112163;28;20702;-74
2023/10/12 09:48:58;;;;;;;0.60;0.20;;;18.60;99.90;;;;;;5102676;28;20439;-76
2023/10/12 09:51:28;;;;;;;2.67;2.33;;;18.60;99.90;;;;;;5105731;28;20478;-75
2023/10/12 09:53:59;;;;;;;0.60;0.13;;;18.70;99.90;;;;;;5103670;28;20555;-74
2023/10/12 09:56:33;;;;;;;2.10;0.73;;;18.70;99.90;;;;;;5110075;28;20485;-75
2023/10/12 09:59:08;;;;;;;0.60;0.10;;;18.70;99.90;;;;;;5100182;28;20525;-74
2023/10/12 10:01:50;;;;;;;0.60;0.10;;;18.80;99.90;;;;;;5105220;28;20431;-74
2023/10/12 10:07:15;;;;;;;0.60;0.10;;;18.70;99.90;;;;;;5099056;28;20535;-74
2023/10/12 10:09:47;;;;;;;0.60;0.20;;;18.60;99.90;;;;;;5096863;28;20442;-77
2023/10/12 10:12:17;;;;;;;1.47;0.73;;;18.60;99.90;;;;;;5110037;28;20565;-74
2023/10/12 10:14:51;;;;;;;0.60;0.20;;;18.60;99.90;;;;;;5096517;28;20447;-75
2023/10/12 10:17:23;;;;;;;0.97;0.40;;;18.30;99.90;;;;;;5108787;28;20442;-76
2023/10/12 10:20:33;;;;;;;1.67;0.43;;;18.30;99.90;;;;;;5092445;28;20451;-75
2023/10/12 10:22:59;;;;;;;0.60;0.10;;;18.30;99.90;;;;;;5107184;28;20459;-73
2023/10/12 10:25:33;;;;;;;0.80;0.30;;;18.30;99.90;;;;;;5108792;28;20441;-74
2023/10/12 10:28:07;;;;;;;0.60;0.20;;;18.20;99.90;;;;;;5101665;28;20488;-75
2023/10/12 10:30:41;;;;;;;0.60;0.10;;;18.10;99.90;;;;;;5105828;28;20470;-76
2023/10/12 10:33:13;;;;;;;0.70;0.43;;;18.20;99.90;;;;;;5108630;28;20459;-74
2023/10/12 10:35:58;;;;;;;0.83;0.20;;;18.20;99.90;;;;;;5111564;28;20925;-75
2023/10/12 10:38:32;;;;;;;0.60;0.10;;;18.30;99.90;;;;;;5111024;28;20444;-75
2023/10/12 10:41:08;;;;;;;0.60;0.10;;;18.30;99.90;;;;;;5103605;28;20501;-76
2023/10/12 10:43:38;;;;;;;0.60;0.10;;;18.20;99.90;;;;;;5104637;28;20508;-74
2023/10/12 10:46:10;;;;;;;0.60;0.10;;;18.20;99.90;;;;;;5111537;28;20436;-74
2023/10/12 10:48:40;;;;;;;1.03;0.90;;;18.20;99.90;;;;;;5110908;28;20499;-76
2023/10/12 10:51:18;;;;;;;0.60;0.10;;;18.20;99.90;;;;;;5106106;28;20531;-76
2023/10/12 10:53:51;;;;;;;0.60;0.10;;;18.30;99.90;;;;;;5104048;28;20490;-76
2023/10/12 10:56:34;;;;;;;0.60;0.10;;;18.30;99.90;;;;;;5095029;28;20865;-73
2023/10/12 10:59:02;;;;;;;0.60;0.10;;;18.40;99.90;;;;;;5106761;28;20800;-74
2023/10/12 11:01:31;;;;;;;5.47;1.30;;;18.40;99.90;;;;;;5107166;28;20993;-76
2023/10/12 11:04:01;;;;;;;4.10;1.33;;;18.30;99.90;;;;;;5111369;28;20466;-75
2023/10/12 11:06:31;;;;;;;0.97;0.30;;;18.20;99.90;;;;;;5107681;28;20482;-76
2023/10/12 11:09:05;;;;;;;0.60;0.30;;;17.90;99.90;;;;;;5096849;28;20431;-75
2023/10/12 11:11:44;;;;;;;0.90;0.60;;;17.90;99.90;;;;;;5110696;28;20846;-75
2023/10/12 11:14:17;;;;;;;1.20;0.83;;;18.00;99.90;;;;;;5110779;28;20874;-73
2023/10/12 11:16:47;;;;;;;2.40;1.33;;;17.70;99.90;;;;;;5110606;28;20459;-76
2023/10/12 11:19:19;;;;;;;1.90;1.03;;;17.70;99.90;;;;;;5097915;28;20453;-73
2023/10/12 11:21:51;;;;;;;1.37;0.67;;;17.70;99.90;;;;;;5109604;28;20950;-74
2023/10/12 11:24:22;;;;;;;0.60;0.10;;;17.60;99.90;;;;;;5101163;28;21000;-76
2023/10/12 11:26:52;;;;;;;2.10;0.50;;;17.70;99.90;;;;;;5104804;28;20446;-75
2023/10/12 11:29:20;;;;;;;0.80;0.47;;;17.70;99.90;;;;;;5108057;28;20961;-74
2023/10/12 11:32:08;;;;;;;1.00;0.33;;;17.80;99.90;;;;;;5110328;28;20474;-75
2023/10/12 11:34:36;;;;;;;0.97;0.40;;;17.80;99.90;;;;;;5102319;28;20445;-75
2023/10/12 11:37:05;;;;;;;0.60;0.20;;;18.10;99.90;;;;;;5103485;28;20445;-74
2023/10/12 11:39:41;;;;;;;0.60;0.30;;;17.80;99.90;;;;;;5114404;28;20439;-74
2023/10/12 11:42:12;;;;;;;1.80;1.70;;;18.00;99.90;;;;;;5115008;28;20440;-78
2023/10/12 11:44:43;;;;;;;1.93;0.83;;;18.00;99.90;;;;;;5104581;28;20493;-75
2023/10/12 11:47:37;;;;;;;1.00;0.77;;;18.00;99.90;;;;;;5108945;28;20475;-75
2023/10/12 11:50:09;;;;;;;1.10;0.30;;;;;;;;;;5126108;28;20518;-72
2023/10/12 11:52:40;;;;;;;0.60;0.20;;;17.90;99.90;;;;;;5108722;28;20487;-73
2023/10/12 11:55:19;;;;;;;0.60;0.37;;;17.80;99.90;;;;;;5097268;28;20496;-73
2023/10/12 11:57:49;;;;;;;1.73;1.17;;;17.80;99.90;;;;;;5111903;28;20449;-72
2023/10/12 12:00:26;;;;;;;0.60;0.30;;;17.80;99.90;;;;;;5111931;28;20585;-73
2023/10/12 12:02:59;;;;;;;0.60;0.37;;;17.90;99.90;;;;;;5102683;28;20475;-74
2023/10/12 12:05:29;;;;;;;1.20;1.10;;;17.90;99.90;;;;;;5100824;28;20436;-73
2023/10/12 12:07:59;;;;;;;0.60;0.10;;;17.90;99.90;;;;;;5104487;28;20439;-73
2023/10/12 12:10:37;;;;;;;0.83;0.83;;;17.90;99.90;;;;;;5117647;28;20512;-75
2023/10/12 12:13:08;;;;;;;0.60;0.10;;;18.10;99.90;;;;;;5117497;28;20558;-75
2023/10/12 12:15:36;;;;;;;3.90;2.53;;;18.20;99.90;;;;;;5116766;28;20442;-74
2023/10/12 12:18:13;;;;;;;0.60;0.10;;;18.40;99.90;;;;;;5105459;28;20448;-74
2023/10/12 12:20:44;;;;;;;0.70;0.47;;;18.50;99.90;;;;;;5118761;28;20447;-71
2023/10/12 12:23:12;;;;;;;0.60;0.10;;;18.60;99.90;;;;;;5117211;28;20459;-73
2023/10/12 12:25:40;;;;;;;0.60;0.10;;;18.60;99.90;;;;;;5108742;28;20443;-72
2023/10/12 12:28:13;;;;;;;0.60;0.10;;;18.80;99.90;;;;;;5116272;28;20448;-77
2023/10/12 12:30:47;;;;;;;0.60;0.20;;;18.80;99.90;;;;;;5110526;28;20435;-74
2023/10/12 12:33:29;;;;;;;44.50;29.50;;;;;;;;;;5107362;28;20490;-74
2023/10/12 12:36:00;;;;;;;0.60;0.20;;;18.80;99.90;;;;;;5108016;28;20554;-73
2023/10/12 12:38:43;;;;;;;0.60;0.10;;;18.80;99.90;;;;;;5104498;28;20444;-73
2023/10/12 12:41:19;;;;;;;0.60;0.20;;;18.90;99.90;;;;;;5117749;27;20452;-73
2023/10/12 12:43:47;;;;;;;1.10;0.70;;;18.80;99.90;;;;;;5101472;28;20466;-73
2023/10/12 12:46:16;;;;;;;2.20;0.60;;;18.90;99.90;;;;;;5115826;28;20462;-73
2023/10/12 12:48:46;;;;;;;0.60;0.20;;;18.80;99.90;;;;;;5099895;28;20451;-74
2023/10/12 12:51:15;;;;;;;0.90;0.47;;;18.60;99.90;;;;;;5110816;28;20987;-74
2023/10/12 12:53:46;;;;;;;0.70;0.30;;;18.50;99.90;;;;;;5114758;28;20482;-74
2023/10/12 12:56:15;;;;;;;0.60;0.10;;;18.50;99.90;;;;;;5114351;28;20442;-75
2023/10/12 12:58:46;;;;;;;1.93;1.50;;;18.60;99.90;;;;;;5108879;27;20451;-72
2023/10/12 13:01:16;;;;;;;0.97;0.60;;;18.70;99.90;;;;;;5110670;28;20444;-74
2023/10/12 13:03:44;;;;;;;7.00;1.60;;;18.80;99.90;;;;;;5113216;28;20542;-74
2023/10/12 13:06:15;;;;;;;0.60;0.30;;;18.80;99.90;;;;;;5113369;28;20471;-73
2023/10/12 13:08:43;;;;;;;6.40;5.83;;;18.80;99.90;;;;;;5113688;28;20508;-73
2023/10/12 13:11:11;;;;;;;1.57;1.23;;;18.70;99.90;;;;;;5113980;28;20472;-72
2023/10/12 13:13:40;;;;;;;0.70;0.30;;;18.70;99.90;;;;;;5109973;28;20536;-74
2023/10/12 13:16:12;;;;;;;0.60;0.20;;;18.70;99.90;;;;;;5109674;28;20451;-74
2023/10/12 13:18:46;;;;;;;0.70;0.50;;;18.80;99.90;;;;;;5112561;28;20439;-74
2023/10/12 13:21:16;;;;;;;0.70;0.40;;;18.70;99.90;;;;;;5113164;28;20450;-72
2023/10/12 13:23:45;;;;;;;0.60;0.20;;;18.70;99.90;;;;;;5112898;28;20524;-73
2023/10/12 13:26:17;;;;;;;1.57;1.23;;;18.80;99.90;;;;;;5113346;28;20500;-73
2023/10/12 13:28:45;;;;;;;0.70;0.30;;;18.90;99.90;;;;;;5112552;28;20493;-74
2023/10/12 13:31:13;;;;;;;1.27;0.83;;;;;;;;;;5110749;28;20497;-73
2023/10/12 13:33:42;;;;;;;1.17;1.07;;;18.90;99.90;;;;;;5101828;28;21046;-73
2023/10/12 13:36:11;;;;;;;0.70;0.63;;;18.90;99.90;;;;;;5099869;28;20965;-73
2023/10/12 13:38:41;;;;;;;4.30;2.13;;;18.90;99.90;;;;;;5109596;28;20475;-73
2023/10/12 13:41:10;;;;;;;1.07;0.97;;;18.90;99.90;;;;;;5101528;28;20450;-73
2023/10/12 13:43:39;;;;;;;2.77;2.30;;;18.90;99.90;;;;;;5118671;28;20462;-73
2023/10/12 13:46:08;;;;;;;4.20;3.47;;;17.80;99.90;;;;;;5105105;28;20450;-72
2023/10/12 13:48:38;;;;;;;4.00;2.43;;;18.50;99.90;;;;;;5101732;28;20813;-74
2023/10/12 13:51:12;;;;;;;0.90;0.70;;;18.70;99.90;;;;;;5107336;28;20483;-74
2023/10/12 13:53:45;;;;;;;4.87;3.33;;;18.70;99.90;;;;;;5112716;28;20910;-74
2023/10/12 13:56:14;;;;;;;1.33;0.80;;;18.40;99.90;;;;;;5097537;28;20952;-74
2023/10/12 13:58:44;;;;;;;0.93;0.50;;;18.40;99.90;;;;;;5106606;28;20984;-74
2023/10/12 14:01:14;;;;;;;4.10;3.70;;;18.30;99.90;;;;;;5112090;28;20920;-74
2023/10/12 14:03:52;;;;;;;2.10;1.17;;;18.10;99.90;;;;;;5111554;28;20545;-74
2023/10/12 14:06:21;;;;;;;0.90;0.43;;;18.10;99.90;;;;;;5099994;28;21110;-73
2023/10/12 14:08:50;;;;;;;3.37;1.93;;;18.00;99.90;;;;;;5114694;28;20474;-72
2023/10/12 14:11:19;;;;;;;3.00;2.27;;;17.90;99.90;;;;;;5114050;28;20564;-75
2023/10/12 14:13:48;;;;;;;1.80;1.70;;;17.80;99.90;;;;;;5106848;28;20508;-73
2023/10/12 14:16:16;;;;;;;4.67;1.50;;;17.80;99.90;;;;;;5100097;28;20447;-72
2023/10/12 14:18:49;;;;;;;11.30;4.43;;;17.80;99.90;;;;;;5105547;28;20551;-73
2023/10/12 14:21:19;;;;;;;1.23;1.07;;;17.80;99.90;;;;;;5100790;28;20477;-75
2023/10/12 14:23:48;;;;;;;2.07;1.80;;;17.60;99.90;;;;;;5112341;28;20466;-72
2023/10/12 14:26:18;;;;;;;0.70;0.20;;;17.40;99.90;;;;;;5093087;28;20887;-74
2023/10/12 14:28:50;;;;;;;2.50;1.70;;;17.40;99.90;;;;;;5105260;28;20451;-73
2023/10/12 14:31:20;;;;;;;0.60;0.10;;;17.50;99.90;;;;;;5114943;28;20443;-76
2023/10/12 14:33:51;;;;;;;0.70;0.60;;;;;;;;;;5097873;28;20489;-74
2023/10/12 14:36:20;;;;;;;1.47;0.87;;;17.50;99.90;;;;;;5105558;28;20461;-73
2023/10/12 14:38:49;;;;;;;0.60;0.20;;;18.50;99.90;;;;;;5116334;28;20452;-74
2023/10/12 14:41:18;;;;;;;1.57;0.90;;;17.50;99.90;;;;;;5121021;28;20438;-74
2023/10/12 14:43:47;;;;;;;0.60;0.10;;;17.50;99.90;;;;;;5119761;28;20569;-74
2023/10/12 14:46:18;;;;;;;0.60;0.10;;;17.60;99.90;;;;;;5119445;28;20442;-76
2023/10/12 14:48:49;;;;;;;0.60;0.47;;;17.60;99.90;;;;;;5113510;28;20440;-75
2023/10/12 14:51:25;;;;;;;0.60;0.47;;;17.60;99.90;;;;;;5114265;28;20451;-73
2023/10/12 14:53:53;;;;;;;0.73;0.60;;;17.80;99.90;;;;;;5105029;28;20486;-73
2023/10/12 14:56:27;;;;;;;0.60;0.30;;;17.80;99.90;;;;;;5112810;28;20822;-72
2023/10/12 14:58:56;;;;;;;0.60;0.10;;;17.90;99.90;;;;;;5096683;28;20445;-74
2023/10/12 15:01:27;;;;;;;0.77;0.50;;;17.80;99.90;;;;;;5113340;28;20809;-77
2023/10/12 15:03:56;;;;;;;0.70;0.30;;;17.90;99.90;;;;;;5111394;28;20966;-74
2023/10/12 15:06:25;;;;;;;2.83;2.40;;;17.90;99.90;;;;;;5103891;28;20994;-73
2023/10/12 15:08:54;;;;;;;0.60;0.10;;;17.90;99.90;;;;;;5107715;28;20447;-75
2023/10/12 15:11:25;;;;;;;0.60;0.20;;;17.90;99.90;;;;;;5116017;28;20467;-73
2023/10/12 15:13:54;;;;;;;2.57;2.30;;;18.00;99.90;;;;;;5112722;28;20510;-74
2023/10/12 15:16:25;;;;;;;0.60;0.10;;;18.00;99.90;;;;;;5106314;28;20447;-74
2023/10/12 15:18:53;;;;;;;0.60;0.20;;;18.00;99.90;;;;;;5115072;28;20467;-74
2023/10/12 15:21:21;;;;;;;0.60;0.10;;;19.90;99.90;;;;;;5109233;28;20444;-74
2023/10/12 15:23:59;;;;;;;0.60;0.10;;;18.00;99.90;;;;;;5104679;28;20565;-76
2023/10/12 15:26:28;;;;;;;0.73;0.47;;;18.10;99.90;;;;;;5116610;28;20447;-74
2023/10/12 15:28:57;;;;;;;0.60;0.10;;;18.20;99.90;;;;;;5119496;28;20450;-77
2023/10/12 15:31:26;;;;;;;0.60;0.10;;;18.20;99.90;;;;;;5108357;28;20438;-75
2023/10/12 15:33:56;;;;;;;0.60;0.20;;;;;;;;;;5109785;28;20794;-77
2023/10/12 15:36:25;;;;;;;0.60;0.10;;;18.30;99.90;;;;;;5105177;28;20508;-74
2023/10/12 15:38:53;;;;;;;0.60;0.10;;;18.30;99.90;;;;;;5117285;28;20447;-74
2023/10/12 15:41:21;;;;;;;0.60;0.20;;;18.30;99.90;;;;;;5109120;28;20446;-75
2023/10/12 15:43:52;;;;;;;0.80;0.73;;;18.30;99.90;;;;;;5119751;28;20984;-77
2023/10/12 15:46:21;;;;;;;0.60;0.10;;;18.30;99.90;;;;;;5120669;28;20477;-76
2023/10/12 15:48:49;;;;;;;0.60;0.10;;;18.30;99.90;;;;;;5120097;28;20435;-74
2023/10/12 15:51:19;;;;;;;0.60;0.10;;;18.30;99.90;;;;;;5119099;28;20988;-75
2023/10/12 15:53:48;;;;;;;0.60;0.10;;;16.70;99.90;;;;;;5116555;28;20508;-76
2023/10/12 15:56:17;;;;;;;0.60;0.10;;;18.20;99.90;;;;;;5117452;28;20511;-76
2023/10/12 15:58:45;;;;;;;1.27;1.17;;;18.00;99.90;;;;;;5117215;28;20439;-76
2023/10/12 16:01:17;;;;;;;0.80;0.40;;;18.10;99.90;;;;;;5117606;28;20491;-77
2023/10/12 16:03:45;;;;;;;0.60;0.30;;;18.00;99.90;;;;;;5112728;28;20470;-73
2023/10/12 16:06:14;;;;;;;9.17;1.60;;;17.80;99.90;;;;;;5105197;28;20452;-76
2023/10/12 16:08:44;;;;;;;0.70;0.40;;;17.80;99.90;;;;;;5106943;28;20443;-75
2023/10/12 16:11:16;;;;;;;0.60;0.10;;;17.80;99.90;;;;;;5117355;28;20439;-76
2023/10/12 16:13:45;;;;;;;0.60;0.10;;;17.90;99.90;;;;;;5106771;28;20475;-75
2023/10/12 16:16:14;;;;;;;0.60;0.10;;;17.90;99.90;;;;;;5115159;28;20449;-74
2023/10/12 16:18:44;;;;;;;0.60;0.10;;;17.90;99.90;;;;;;5115085;28;20470;-74
2023/10/12 16:21:15;;;;;;;0.60;0.10;;;18.00;99.90;;;;;;5114504;28;20448;-75
2023/10/12 16:23:43;;;;;;;0.60;0.10;;;18.00;99.90;;;;;;5113364;28;21029;-75
2023/10/12 16:26:13;;;;;;;0.60;0.10;;;18.10;99.90;;;;;;5115425;28;20443;-75
2023/10/12 16:28:41;;;;;;;0.60;0.10;;;18.10;99.90;;;;;;5114601;28;20447;-73
2023/10/12 16:31:10;;;;;;;0.60;0.10;;;18.10;99.90;;;;;;5110550;28;20455;-76
2023/10/12 16:33:38;;;;;;;0.60;0.20;;;18.10;99.90;;;;;;5106245;28;20488;-76
2023/10/12 16:36:11;;;;;;;0.60;0.10;;;18.10;99.90;;;;;;5108831;28;20474;-74
2023/10/12 16:38:39;;;;;;;2.10;1.70;;;18.10;99.90;;;;;;5114298;28;20446;-75
2023/10/12 16:41:07;;;;;;;0.60;0.20;;;18.10;99.90;;;;;;5114026;28;20447;-76
2023/10/12 16:43:36;;;;;;;0.60;0.10;;;18.00;99.90;;;;;;5104778;28;20476;-74
2023/10/12 16:46:06;;;;;;;0.90;0.57;;;18.00;99.90;;;;;;5113744;28;20440;-76
2023/10/12 16:48:35;;;;;;;0.60;0.10;;;18.00;99.90;;;;;;5104333;28;20446;-77
2023/10/12 16:51:05;;;;;;;0.97;0.60;;;17.90;99.90;;;;;;5110197;28;20463;-75
2023/10/12 16:53:36;;;;;;;0.60;0.20;;;18.00;99.90;;;;;;5114926;28;20471;-77
2023/10/12 16:56:10;;;;;;;1.73;1.50;;;18.00;99.90;;;;;;5114507;28;20574;-75
2023/10/12 16:58:38;;;;;;;0.60;0.10;;;17.90;99.90;;;;;;5112270;28;20500;-75
2023/10/12 17:01:06;;;;;;;0.90;0.57;;;17.80;99.90;;;;;;5107989;28;20443;-76
2023/10/12 17:03:35;;;;;;;0.70;0.47;;;17.80;99.90;;;;;;5101423;28;21042;-74
2023/10/12 17:06:05;;;;;;;0.60;0.20;;;17.80;99.90;;;;;;5105785;28;20496;-76
2023/10/12 17:08:35;;;;;;;1.60;0.50;;;17.70;99.90;;;;;;5113758;28;20524;-75
2023/10/12 17:11:05;;;;;;;0.60;0.20;;;17.70;99.90;;;;;;5109088;28;20455;-77
2023/10/12 17:13:33;;;;;;;1.97;1.27;;;17.70;99.90;;;;;;5102965;28;20466;-78
2023/10/12 17:16:01;;;;;;;1.47;1.37;;;17.80;99.90;;;;;;5117687;28;20511;-76
2023/10/12 17:18:33;;;;;;;1.37;1.27;;;17.80;99.90;;;;;;5114573;28;21233;-75
2023/10/12 17:21:02;;;;;;;0.83;0.43;;;17.80;99.90;;;;;;5112246;28;20452;-74
2023/10/12 17:23:30;;;;;;;0.60;0.17;;;17.90;99.90;;;;;;5104577;28;20539;-75
2023/10/12 17:25:59;;;;;;;0.60;0.10;;;17.90;99.90;;;;;;5110317;27;20447;-76
2023/10/12 17:28:29;;;;;;;0.60;0.10;;;17.90;99.90;;;;;;5107172;28;20455;-75
2023/10/12 17:31:05;;;;;;;0.60;0.10;;;17.90;99.90;;;;;;5102278;28;20500;-76
2023/10/12 17:33:33;;;;;;;0.90;0.60;;;18.00;99.90;;;;;;5103886;28;20474;-75
2023/10/12 17:36:03;;;;;;;0.70;0.30;;;;;;;;;;5113799;28;20569;-76
2023/10/12 17:38:32;;;;;;;0.60;0.40;;;18.00;99.90;;;;;;5114852;28;20481;-76
2023/10/12 17:41:02;;;;;;;0.60;0.20;;;17.90;99.90;;;;;;5108584;28;20504;-75